createdAt,value
2017-01-07T00:01:03.313Z,984.11
2017-01-07T00:02:11.997Z,984.09
2017-01-07T00:03:20.687Z,984.12
2017-01-07T00:04:29.385Z,984.13
2017-01-07T00:05:38.074Z,984.14
2017-01-07T00:06:46.762Z,984.09
2017-01-07T00:07:55.457Z,984.07
2017-01-07T00:09:04.146Z,984
2017-01-07T00:10:12.835Z,983.97
2017-01-07T00:11:21.525Z,984
2017-01-07T00:12:30.217Z,983.95
2017-01-07T00:13:38.904Z,983.93
2017-01-07T00:14:47.588Z,983.89
2017-01-07T00:15:56.273Z,983.86
2017-01-07T00:17:04.970Z,983.8
2017-01-07T00:18:13.653Z,983.76
2017-01-07T00:19:22.340Z,983.72
2017-01-07T00:20:31.026Z,983.71
2017-01-07T00:21:39.715Z,983.61
2017-01-07T00:22:48.401Z,983.52
2017-01-07T00:23:57.089Z,983.39
2017-01-07T00:25:05.778Z,983.25
2017-01-07T00:26:14.465Z,983.22
2017-01-07T00:27:23.166Z,983.11
2017-01-07T00:28:31.857Z,983.08
2017-01-07T00:29:40.548Z,983.05
2017-01-07T00:30:49.236Z,983.07
2017-01-07T00:31:57.921Z,982.98
2017-01-07T00:33:06.605Z,982.97
2017-01-07T00:34:15.297Z,983.03
2017-01-07T00:35:23.981Z,983.04
2017-01-07T00:36:32.665Z,983.03
2017-01-07T00:37:41.349Z,983.03
2017-01-07T00:38:50.052Z,983.1
2017-01-07T00:39:58.739Z,983.04
2017-01-07T00:41:07.439Z,983.02
2017-01-07T00:42:16.142Z,983.1
2017-01-07T00:43:24.824Z,983.11
2017-01-07T00:44:33.512Z,983.1
2017-01-07T00:45:42.197Z,983.11
2017-01-07T00:46:50.886Z,983.11
2017-01-07T00:47:59.571Z,983.15
2017-01-07T00:49:08.271Z,983.24
2017-01-07T00:50:16.954Z,983.29
2017-01-07T00:51:25.639Z,983.34
2017-01-07T00:52:34.333Z,983.32
2017-01-07T00:53:43.020Z,983.38
2017-01-07T00:54:51.802Z,983.39
2017-01-07T00:56:00.487Z,983.51
2017-01-07T00:57:09.178Z,983.52
2017-01-07T00:58:17.866Z,983.61
2017-01-07T00:59:26.583Z,983.67
2017-01-07T01:00:35.314Z,983.77
2017-01-07T01:01:44.005Z,983.8
2017-01-07T01:02:52.695Z,983.79
2017-01-07T01:04:01.382Z,983.96
2017-01-07T01:05:10.066Z,983.91
2017-01-07T01:06:18.770Z,983.83
2017-01-07T01:07:27.457Z,983.89
2017-01-07T01:08:36.147Z,983.94
2017-01-07T01:09:44.835Z,983.99
2017-01-07T01:10:53.528Z,983.88
2017-01-07T01:12:02.220Z,983.83
2017-01-07T01:13:10.913Z,983.88
2017-01-07T01:14:19.604Z,983.77
2017-01-07T01:15:28.292Z,983.84
2017-01-07T01:16:36.982Z,983.89
2017-01-07T01:17:45.673Z,983.97
2017-01-07T01:18:54.362Z,983.96
2017-01-07T01:20:03.051Z,984.02
2017-01-07T01:21:11.734Z,984.1
2017-01-07T01:22:20.420Z,984.13
2017-01-07T01:23:29.110Z,984.16
2017-01-07T01:24:37.794Z,984.22
2017-01-07T01:25:46.476Z,984.24
2017-01-07T01:26:55.160Z,984.15
2017-01-07T01:28:03.843Z,984.21
2017-01-07T01:29:12.531Z,984.21
2017-01-07T01:30:21.218Z,984.19
2017-01-07T01:31:29.905Z,984.14
2017-01-07T01:32:38.598Z,984.17
2017-01-07T01:33:47.285Z,984.26
2017-01-07T01:34:55.970Z,984.2
2017-01-07T01:36:04.657Z,984.19
2017-01-07T01:37:13.340Z,984.18
2017-01-07T01:38:22.026Z,984.13
2017-01-07T01:39:30.709Z,984.16
2017-01-07T01:40:39.394Z,984.19
2017-01-07T01:41:48.095Z,984.22
2017-01-07T01:42:56.784Z,984.25
2017-01-07T01:44:05.475Z,984.29
2017-01-07T01:45:14.159Z,984.24
2017-01-07T01:46:22.849Z,984.26
2017-01-07T01:47:31.539Z,984.27
2017-01-07T01:48:40.222Z,984.36
2017-01-07T01:49:48.938Z,984.28
2017-01-07T01:50:57.624Z,984.29
2017-01-07T01:52:06.306Z,984.26
2017-01-07T01:53:14.991Z,984.27
2017-01-07T01:54:23.675Z,984.33
2017-01-07T01:55:32.364Z,984.29
2017-01-07T01:56:41.048Z,984.29
2017-01-07T01:57:49.734Z,984.33
2017-01-07T01:58:58.419Z,984.37
2017-01-07T02:00:07.108Z,984.34
2017-01-07T02:01:15.792Z,984.36
2017-01-07T02:02:24.480Z,984.34
2017-01-07T02:03:33.167Z,984.3
2017-01-07T02:04:41.863Z,984.28
2017-01-07T02:05:50.549Z,984.33
2017-01-07T02:06:59.233Z,984.37
2017-01-07T02:08:07.919Z,984.35
2017-01-07T02:09:16.605Z,984.31
2017-01-07T02:10:25.288Z,984.33
2017-01-07T02:11:33.973Z,984.36
2017-01-07T02:12:42.655Z,984.42
2017-01-07T02:13:51.343Z,984.47
2017-01-07T02:15:00.026Z,984.52
2017-01-07T02:16:09.113Z,984.5
2017-01-07T02:17:17.800Z,984.52
2017-01-07T02:18:26.487Z,984.53
2017-01-07T02:19:35.181Z,984.49
2017-01-07T02:20:43.882Z,984.54
2017-01-07T02:21:52.567Z,984.53
2017-01-07T02:23:01.249Z,984.5
2017-01-07T02:24:09.931Z,984.46
2017-01-07T02:25:18.619Z,984.46
2017-01-07T02:26:27.307Z,984.45
2017-01-07T02:27:35.998Z,984.49
2017-01-07T02:28:44.683Z,984.46
2017-01-07T02:29:53.369Z,984.45
2017-01-07T02:31:02.050Z,984.42
2017-01-07T02:32:10.740Z,984.49
2017-01-07T02:33:19.433Z,984.46
2017-01-07T02:34:28.136Z,984.47
2017-01-07T02:35:36.826Z,984.5
2017-01-07T02:36:45.510Z,984.53
2017-01-07T02:37:54.192Z,984.5
2017-01-07T02:39:02.875Z,984.44
2017-01-07T02:40:11.567Z,984.44
2017-01-07T02:41:20.253Z,984.42
2017-01-07T02:42:28.942Z,984.42
2017-01-07T02:43:37.632Z,984.42
2017-01-07T02:44:46.324Z,984.4
2017-01-07T02:45:55.014Z,984.42
2017-01-07T02:47:03.700Z,984.38
2017-01-07T02:48:12.390Z,984.39
2017-01-07T02:49:21.071Z,984.33
2017-01-07T02:50:29.757Z,984.33
2017-01-07T02:51:38.444Z,984.35
2017-01-07T02:52:47.132Z,984.4
2017-01-07T02:53:55.824Z,984.44
2017-01-07T02:55:04.511Z,984.48
2017-01-07T02:56:13.191Z,984.48
2017-01-07T02:57:21.874Z,984.49
2017-01-07T02:58:30.557Z,984.48
2017-01-07T02:59:39.247Z,984.48
2017-01-07T03:00:47.934Z,984.46
2017-01-07T03:01:56.641Z,984.53
2017-01-07T03:03:05.329Z,984.54
2017-01-07T03:04:14.022Z,984.55
2017-01-07T03:05:22.708Z,984.52
2017-01-07T03:06:31.399Z,984.57
2017-01-07T03:07:40.478Z,984.6
2017-01-07T03:08:49.164Z,984.57
2017-01-07T03:09:57.855Z,984.57
2017-01-07T03:11:06.547Z,984.61
2017-01-07T03:12:15.232Z,984.64
2017-01-07T03:13:23.918Z,984.63
2017-01-07T03:14:32.603Z,984.61
2017-01-07T03:15:41.291Z,984.69
2017-01-07T03:16:49.982Z,984.64
2017-01-07T03:17:58.682Z,984.67
2017-01-07T03:19:07.366Z,984.69
2017-01-07T03:20:16.053Z,984.71
2017-01-07T03:21:24.739Z,984.71
2017-01-07T03:22:33.424Z,984.72
2017-01-07T03:23:42.408Z,984.72
2017-01-07T03:24:51.089Z,984.77
2017-01-07T03:25:59.774Z,984.8
2017-01-07T03:27:08.459Z,984.85
2017-01-07T03:28:17.144Z,984.89
2017-01-07T03:29:26.182Z,984.93
2017-01-07T03:30:34.874Z,984.94
2017-01-07T03:31:43.555Z,984.97
2017-01-07T03:32:52.240Z,984.97
2017-01-07T03:34:00.964Z,984.95
2017-01-07T03:35:09.701Z,984.97
2017-01-07T03:36:18.383Z,984.94
2017-01-07T03:37:27.068Z,984.98
2017-01-07T03:38:35.776Z,985.01
2017-01-07T03:39:44.465Z,984.99
2017-01-07T03:40:53.203Z,984.96
2017-01-07T03:42:01.892Z,985
2017-01-07T03:43:10.580Z,985
2017-01-07T03:44:19.266Z,985.02
2017-01-07T03:45:27.946Z,985.03
2017-01-07T03:46:36.731Z,985.05
2017-01-07T03:47:45.408Z,985.08
2017-01-07T03:48:54.092Z,985.08
2017-01-07T03:50:02.808Z,985.04
2017-01-07T03:51:11.521Z,985.07
2017-01-07T03:52:20.254Z,985.05
2017-01-07T03:53:28.939Z,984.99
2017-01-07T03:54:37.629Z,985.05
2017-01-07T03:55:46.314Z,985.09
2017-01-07T03:56:54.998Z,985.07
2017-01-07T03:58:03.732Z,985.16
2017-01-07T03:59:12.411Z,985.05
2017-01-07T04:00:21.127Z,985.15
2017-01-07T04:01:29.806Z,985.29
2017-01-07T04:02:38.487Z,985.34
2017-01-07T04:03:47.218Z,985.25
2017-01-07T04:04:56.304Z,985.29
2017-01-07T04:06:04.989Z,985.19
2017-01-07T04:07:13.680Z,985.25
2017-01-07T04:08:22.364Z,985.3
2017-01-07T04:09:36.208Z,985.33
2017-01-07T04:10:44.892Z,985.41
2017-01-07T04:11:53.574Z,985.4
2017-01-07T04:13:02.259Z,985.46
2017-01-07T04:14:10.947Z,985.49
2017-01-07T04:15:19.930Z,985.5
2017-01-07T04:16:28.608Z,985.5
2017-01-07T04:17:37.301Z,985.45
2017-01-07T04:18:45.985Z,985.54
2017-01-07T04:19:54.667Z,985.55
2017-01-07T04:21:03.396Z,985.54
2017-01-07T04:22:12.084Z,985.51
2017-01-07T04:23:20.769Z,985.55
2017-01-07T04:24:29.449Z,985.57
2017-01-07T04:25:38.164Z,985.64
2017-01-07T04:26:46.906Z,985.66
2017-01-07T04:27:55.589Z,985.68
2017-01-07T04:29:04.271Z,985.69
2017-01-07T04:30:12.956Z,985.65
2017-01-07T04:31:21.635Z,985.8
2017-01-07T04:32:30.394Z,985.79
2017-01-07T04:33:39.080Z,985.81
2017-01-07T04:34:47.766Z,985.84
2017-01-07T04:35:56.456Z,985.82
2017-01-07T04:37:05.146Z,985.9
2017-01-07T04:38:13.877Z,985.87
2017-01-07T04:39:22.567Z,985.81
2017-01-07T04:40:31.252Z,985.81
2017-01-07T04:41:39.933Z,985.82
2017-01-07T04:42:48.615Z,985.83
2017-01-07T04:43:57.349Z,985.81
2017-01-07T04:45:06.037Z,985.82
2017-01-07T04:46:14.726Z,985.86
2017-01-07T04:47:23.405Z,985.86
2017-01-07T04:48:32.086Z,985.77
2017-01-07T04:49:40.824Z,985.73
2017-01-07T04:50:49.510Z,985.82
2017-01-07T04:51:58.591Z,985.87
2017-01-07T04:53:07.281Z,985.9
2017-01-07T04:54:15.965Z,985.9
2017-01-07T04:55:24.705Z,985.79
2017-01-07T04:56:33.387Z,985.85
2017-01-07T04:57:42.075Z,985.82
2017-01-07T04:58:50.760Z,985.68
2017-01-07T04:59:59.441Z,985.58
2017-01-07T05:01:08.179Z,985.54
2017-01-07T05:02:16.871Z,985.58
2017-01-07T05:03:25.555Z,985.53
2017-01-07T05:04:34.238Z,985.47
2017-01-07T05:05:42.925Z,985.52
2017-01-07T05:06:51.670Z,985.54
2017-01-07T05:08:00.379Z,985.54
2017-01-07T05:09:09.485Z,985.55
2017-01-07T05:10:18.168Z,985.61
2017-01-07T05:11:26.855Z,985.64
2017-01-07T05:12:35.597Z,985.73
2017-01-07T05:13:44.280Z,985.74
2017-01-07T05:14:52.968Z,985.82
2017-01-07T05:16:01.653Z,985.92
2017-01-07T05:17:10.335Z,985.93
2017-01-07T05:18:19.063Z,985.95
2017-01-07T05:19:27.750Z,985.92
2017-01-07T05:20:36.432Z,985.89
2017-01-07T05:21:45.115Z,985.86
2017-01-07T05:22:53.801Z,985.96
2017-01-07T05:24:02.531Z,986.01
2017-01-07T05:25:11.215Z,985.99
2017-01-07T05:26:19.902Z,985.91
2017-01-07T05:27:28.595Z,985.82
2017-01-07T05:28:37.279Z,985.75
2017-01-07T05:29:46.010Z,985.69
2017-01-07T05:30:54.690Z,985.68
2017-01-07T05:32:03.376Z,985.77
2017-01-07T05:33:12.061Z,985.73
2017-01-07T05:34:20.745Z,985.8
2017-01-07T05:35:29.480Z,985.81
2017-01-07T05:36:38.162Z,985.92
2017-01-07T05:37:46.847Z,985.93
2017-01-07T05:38:55.537Z,985.96
2017-01-07T05:40:04.224Z,985.9
2017-01-07T05:41:12.958Z,985.98
2017-01-07T05:42:21.643Z,986.03
2017-01-07T05:43:30.343Z,986.07
2017-01-07T05:44:39.031Z,986.13
2017-01-07T05:45:47.747Z,986.14
2017-01-07T05:46:56.491Z,986.11
2017-01-07T05:48:05.573Z,986.1
2017-01-07T05:49:14.268Z,986.08
2017-01-07T05:50:22.954Z,986.08
2017-01-07T05:51:31.695Z,986.12
2017-01-07T05:52:40.429Z,986.15
2017-01-07T05:53:49.108Z,986.2
2017-01-07T05:54:57.793Z,986.18
2017-01-07T05:56:06.477Z,986.28
2017-01-07T05:57:15.165Z,986.28
2017-01-07T05:58:23.908Z,986.3
2017-01-07T05:59:32.601Z,986.31
2017-01-07T06:00:41.289Z,986.27
2017-01-07T06:01:49.969Z,986.2
2017-01-07T06:02:58.649Z,986.25
2017-01-07T06:04:07.383Z,986.25
2017-01-07T06:05:16.094Z,986.23
2017-01-07T06:06:24.779Z,986.27
2017-01-07T06:07:33.466Z,986.26
2017-01-07T06:08:42.150Z,986.34
2017-01-07T06:09:50.885Z,986.43
2017-01-07T06:10:59.567Z,986.5
2017-01-07T06:12:08.252Z,986.58
2017-01-07T06:13:16.934Z,986.58
2017-01-07T06:14:25.618Z,986.65
2017-01-07T06:15:34.355Z,986.67
2017-01-07T06:16:43.044Z,986.72
2017-01-07T06:17:51.765Z,986.78
2017-01-07T06:19:00.452Z,986.89
2017-01-07T06:20:09.133Z,986.92
2017-01-07T06:21:17.818Z,986.98
2017-01-07T06:22:26.503Z,986.96
2017-01-07T06:23:35.191Z,986.96
2017-01-07T06:24:43.874Z,986.9
2017-01-07T06:25:52.566Z,986.85
2017-01-07T06:27:01.254Z,986.84
2017-01-07T06:28:09.939Z,986.91
2017-01-07T06:29:18.650Z,986.89
2017-01-07T06:30:27.332Z,986.9
2017-01-07T06:31:36.014Z,986.97
2017-01-07T06:32:44.699Z,986.93
2017-01-07T06:33:53.384Z,986.92
2017-01-07T06:35:02.075Z,986.91
2017-01-07T06:36:10.760Z,986.86
2017-01-07T06:37:19.464Z,986.84
2017-01-07T06:38:28.148Z,986.83
2017-01-07T06:39:36.832Z,986.84
2017-01-07T06:40:45.514Z,986.81
2017-01-07T06:41:54.202Z,986.85
2017-01-07T06:43:02.885Z,986.89
2017-01-07T06:44:11.569Z,986.92
2017-01-07T06:45:20.252Z,987
2017-01-07T06:46:28.935Z,987.14
2017-01-07T06:47:37.637Z,987.17
2017-01-07T06:48:46.314Z,987.22
2017-01-07T06:49:54.993Z,987.23
2017-01-07T06:51:03.684Z,987.3
2017-01-07T06:52:12.371Z,987.35
2017-01-07T06:53:21.055Z,987.4
2017-01-07T06:54:29.742Z,987.32
2017-01-07T06:55:38.424Z,987.32
2017-01-07T06:56:47.112Z,987.36
2017-01-07T06:57:55.797Z,987.44
2017-01-07T06:59:04.479Z,987.47
2017-01-07T07:00:13.161Z,987.44
2017-01-07T07:01:21.842Z,987.48
2017-01-07T07:02:30.526Z,987.51
2017-01-07T07:03:39.209Z,987.53
2017-01-07T07:04:47.892Z,987.5
2017-01-07T07:05:56.578Z,987.51
2017-01-07T07:07:05.262Z,987.53
2017-01-07T07:08:13.942Z,987.5
2017-01-07T07:09:22.622Z,987.49
2017-01-07T07:10:31.303Z,987.53
2017-01-07T07:11:39.990Z,987.5
2017-01-07T07:12:48.676Z,987.51
2017-01-07T07:13:57.362Z,987.55
2017-01-07T07:15:06.452Z,987.63
2017-01-07T07:16:15.169Z,987.57
2017-01-07T07:17:23.853Z,987.65
2017-01-07T07:18:32.538Z,987.59
2017-01-07T07:19:41.217Z,987.59
2017-01-07T07:20:49.920Z,987.6
2017-01-07T07:21:58.609Z,987.62
2017-01-07T07:23:07.295Z,987.66
2017-01-07T07:24:15.975Z,987.7
2017-01-07T07:25:24.656Z,987.74
2017-01-07T07:26:33.340Z,987.87
2017-01-07T07:27:42.424Z,987.83
2017-01-07T07:28:51.101Z,987.88
2017-01-07T07:29:59.787Z,987.89
2017-01-07T07:31:08.467Z,987.88
2017-01-07T07:32:17.147Z,987.86
2017-01-07T07:33:25.853Z,987.9
2017-01-07T07:34:34.534Z,987.89
2017-01-07T07:35:43.214Z,987.9
2017-01-07T07:36:51.895Z,987.86
2017-01-07T07:38:00.581Z,987.89
2017-01-07T07:39:09.265Z,987.9
2017-01-07T07:40:17.948Z,987.87
2017-01-07T07:41:26.634Z,987.9
2017-01-07T07:42:35.324Z,987.89
2017-01-07T07:43:44.007Z,987.93
2017-01-07T07:44:52.691Z,987.91
2017-01-07T07:46:01.377Z,987.97
2017-01-07T07:47:10.058Z,987.93
2017-01-07T07:48:18.756Z,987.91
2017-01-07T07:49:27.466Z,987.94
2017-01-07T07:50:36.156Z,987.92
2017-01-07T07:51:44.840Z,987.89
2017-01-07T07:52:53.524Z,987.95
2017-01-07T07:54:02.207Z,987.94
2017-01-07T07:55:10.893Z,988
2017-01-07T07:56:19.582Z,988
2017-01-07T07:57:28.267Z,988.02
2017-01-07T07:58:36.949Z,988.03
2017-01-07T07:59:45.634Z,988.01
2017-01-07T08:00:54.316Z,988.08
2017-01-07T08:02:03.001Z,988.1
2017-01-07T08:03:11.683Z,988.16
2017-01-07T08:04:20.366Z,988.2
2017-01-07T08:05:29.050Z,988.19
2017-01-07T08:06:37.736Z,988.24
2017-01-07T08:07:46.442Z,988.29
2017-01-07T08:08:55.125Z,988.24
2017-01-07T08:10:03.844Z,988.26
2017-01-07T08:11:12.536Z,988.28
2017-01-07T08:12:21.221Z,988.26
2017-01-07T08:13:29.906Z,988.33
2017-01-07T08:14:38.592Z,988.34
2017-01-07T08:15:47.275Z,988.3
2017-01-07T08:16:55.966Z,988.33
2017-01-07T08:18:04.648Z,988.36
2017-01-07T08:19:13.332Z,988.31
2017-01-07T08:20:22.014Z,988.36
2017-01-07T08:21:30.698Z,988.38
2017-01-07T08:22:39.379Z,988.39
2017-01-07T08:23:48.067Z,988.41
2017-01-07T08:24:56.751Z,988.46
2017-01-07T08:26:05.435Z,988.44
2017-01-07T08:27:14.132Z,988.42
2017-01-07T08:28:22.826Z,988.45
2017-01-07T08:29:31.506Z,988.47
2017-01-07T08:30:40.192Z,988.49
2017-01-07T08:31:48.872Z,988.45
2017-01-07T08:32:57.554Z,988.49
2017-01-07T08:34:06.269Z,988.48
2017-01-07T08:35:14.952Z,988.45
2017-01-07T08:36:23.660Z,988.47
2017-01-07T08:37:32.343Z,988.48
2017-01-07T08:38:41.029Z,988.61
2017-01-07T08:39:50.104Z,988.59
2017-01-07T08:40:58.786Z,988.64
2017-01-07T08:42:07.474Z,988.65
2017-01-07T08:43:16.161Z,988.67
2017-01-07T08:44:24.846Z,988.66
2017-01-07T08:45:33.523Z,988.69
2017-01-07T08:46:42.217Z,988.65
2017-01-07T08:47:50.929Z,988.65
2017-01-07T08:48:59.611Z,988.68
2017-01-07T08:50:08.293Z,988.66
2017-01-07T08:51:16.976Z,988.68
2017-01-07T08:52:25.659Z,988.68
2017-01-07T08:53:34.341Z,988.77
2017-01-07T08:54:43.029Z,988.81
2017-01-07T08:55:51.716Z,988.83
2017-01-07T08:57:00.397Z,988.86
2017-01-07T08:58:09.083Z,988.91
2017-01-07T08:59:17.766Z,988.92
2017-01-07T09:00:26.448Z,989.05
2017-01-07T09:01:35.153Z,989.16
2017-01-07T09:02:43.835Z,989.28
2017-01-07T09:03:52.517Z,989.34
2017-01-07T09:05:01.202Z,989.41
2017-01-07T09:06:09.886Z,989.38
2017-01-07T09:07:18.568Z,989.42
2017-01-07T09:08:27.248Z,989.38
2017-01-07T09:09:35.932Z,989.39
2017-01-07T09:10:44.613Z,989.36
2017-01-07T09:11:53.302Z,989.34
2017-01-07T09:13:01.995Z,989.33
2017-01-07T09:14:10.696Z,989.32
2017-01-07T09:15:19.380Z,989.29
2017-01-07T09:16:28.061Z,989.33
2017-01-07T09:17:36.753Z,989.32
2017-01-07T09:18:45.440Z,989.27
2017-01-07T09:19:54.123Z,989.31
2017-01-07T09:21:02.808Z,989.3
2017-01-07T09:22:11.494Z,989.3
2017-01-07T09:23:20.173Z,989.28
2017-01-07T09:24:28.859Z,989.29
2017-01-07T09:25:37.541Z,989.32
2017-01-07T09:26:46.225Z,989.38
2017-01-07T09:27:54.913Z,989.37
2017-01-07T09:29:03.597Z,989.4
2017-01-07T09:30:12.281Z,989.43
2017-01-07T09:31:20.968Z,989.37
2017-01-07T09:32:29.652Z,989.37
2017-01-07T09:33:38.336Z,989.4
2017-01-07T09:34:47.028Z,989.36
2017-01-07T09:35:55.763Z,989.4
2017-01-07T09:37:04.446Z,989.4
2017-01-07T09:38:13.134Z,989.4
2017-01-07T09:39:21.820Z,989.4
2017-01-07T09:40:30.513Z,989.42
2017-01-07T09:41:39.202Z,989.49
2017-01-07T09:42:47.891Z,989.55
2017-01-07T09:43:56.574Z,989.58
2017-01-07T09:45:05.264Z,989.55
2017-01-07T09:46:13.951Z,989.64
2017-01-07T09:47:22.660Z,989.69
2017-01-07T09:48:31.349Z,989.72
2017-01-07T09:49:40.059Z,989.77
2017-01-07T09:50:48.743Z,989.74
2017-01-07T09:51:57.428Z,989.76
2017-01-07T09:53:06.117Z,989.76
2017-01-07T09:54:14.817Z,989.82
2017-01-07T09:55:23.496Z,989.8
2017-01-07T09:56:32.182Z,989.82
2017-01-07T09:57:40.862Z,989.81
2017-01-07T09:58:49.548Z,989.82
2017-01-07T09:59:58.236Z,989.85
2017-01-07T10:01:06.917Z,989.87
2017-01-07T10:02:15.601Z,989.94
2017-01-07T10:03:24.287Z,990.02
2017-01-07T10:04:32.968Z,989.94
2017-01-07T10:05:41.653Z,989.93
2017-01-07T10:06:50.343Z,989.84
2017-01-07T10:07:59.057Z,989.82
2017-01-07T10:09:07.741Z,989.8
2017-01-07T10:10:16.427Z,989.82
2017-01-07T10:11:25.124Z,989.84
2017-01-07T10:12:33.813Z,989.84
2017-01-07T10:13:42.504Z,989.82
2017-01-07T10:14:51.197Z,989.84
2017-01-07T10:15:59.879Z,989.86
2017-01-07T10:17:08.567Z,989.86
2017-01-07T10:18:17.255Z,989.86
2017-01-07T10:19:25.944Z,989.9
2017-01-07T10:20:34.631Z,989.86
2017-01-07T10:21:43.319Z,989.82
2017-01-07T10:22:52.017Z,989.77
2017-01-07T10:24:00.703Z,989.73
2017-01-07T10:25:09.394Z,989.72
2017-01-07T10:26:18.076Z,989.7
2017-01-07T10:27:26.757Z,989.75
2017-01-07T10:28:35.441Z,989.77
2017-01-07T10:29:44.126Z,989.7
2017-01-07T10:30:52.810Z,989.67
2017-01-07T10:32:01.501Z,989.68
2017-01-07T10:33:10.181Z,989.76
2017-01-07T10:34:18.863Z,989.78
2017-01-07T10:35:27.545Z,989.78
2017-01-07T10:36:36.232Z,989.76
2017-01-07T10:37:44.915Z,989.75
2017-01-07T10:38:53.597Z,989.76
2017-01-07T10:40:02.279Z,989.83
2017-01-07T10:41:10.965Z,989.86
2017-01-07T10:42:19.664Z,989.88
2017-01-07T10:43:28.350Z,989.95
2017-01-07T10:44:37.033Z,989.94
2017-01-07T10:45:45.715Z,989.93
2017-01-07T10:46:54.398Z,989.88
2017-01-07T10:48:03.087Z,989.92
2017-01-07T10:49:11.775Z,989.87
2017-01-07T10:50:20.462Z,989.93
2017-01-07T10:51:29.146Z,989.93
2017-01-07T10:52:37.832Z,989.98
2017-01-07T10:53:46.538Z,990.02
2017-01-07T10:54:55.227Z,990.09
2017-01-07T10:56:03.912Z,990.15
2017-01-07T10:57:12.597Z,990.15
2017-01-07T10:58:21.284Z,990.21
2017-01-07T10:59:29.971Z,990.26
2017-01-07T11:00:38.656Z,990.25
2017-01-07T11:01:47.385Z,990.26
2017-01-07T11:02:56.075Z,990.24
2017-01-07T11:04:04.773Z,990.21
2017-01-07T11:05:13.457Z,990.22
2017-01-07T11:06:22.542Z,990.22
2017-01-07T11:07:31.234Z,990.19
2017-01-07T11:08:39.941Z,990.21
2017-01-07T11:09:48.634Z,990.21
2017-01-07T11:10:57.322Z,990.2
2017-01-07T11:12:06.046Z,990.2
2017-01-07T11:13:14.732Z,990.19
2017-01-07T11:14:23.419Z,990.22
2017-01-07T11:15:32.110Z,990.25
2017-01-07T11:16:40.796Z,990.19
2017-01-07T11:17:49.486Z,990.23
2017-01-07T11:18:58.175Z,990.28
2017-01-07T11:20:06.888Z,990.35
2017-01-07T11:21:15.572Z,990.29
2017-01-07T11:22:24.257Z,990.24
2017-01-07T11:23:32.943Z,990.26
2017-01-07T11:24:41.628Z,990.26
2017-01-07T11:25:50.319Z,990.24
2017-01-07T11:26:59.405Z,990.26
2017-01-07T11:28:08.092Z,990.22
2017-01-07T11:29:16.785Z,990.25
2017-01-07T11:30:25.470Z,990.26
2017-01-07T11:31:34.153Z,990.29
2017-01-07T11:32:42.840Z,990.32
2017-01-07T11:33:51.531Z,990.33
2017-01-07T11:35:00.216Z,990.35
2017-01-07T11:36:08.900Z,990.36
2017-01-07T11:37:17.591Z,990.38
2017-01-07T11:38:26.283Z,990.4
2017-01-07T11:39:34.971Z,990.39
2017-01-07T11:40:43.659Z,990.41
2017-01-07T11:41:52.347Z,990.44
2017-01-07T11:43:01.053Z,990.45
2017-01-07T11:44:09.739Z,990.47
2017-01-07T11:45:18.419Z,990.45
2017-01-07T11:46:27.111Z,990.52
2017-01-07T11:47:35.795Z,990.55
2017-01-07T11:48:44.482Z,990.6
2017-01-07T11:49:53.170Z,990.62
2017-01-07T11:51:01.858Z,990.62
2017-01-07T11:52:10.547Z,990.66
2017-01-07T11:53:19.244Z,990.68
2017-01-07T11:54:27.933Z,990.72
2017-01-07T11:55:36.624Z,990.75
2017-01-07T11:56:45.307Z,990.75
2017-01-07T11:57:53.995Z,990.73
2017-01-07T11:59:02.686Z,990.78
2017-01-07T12:00:11.370Z,990.78
2017-01-07T12:01:20.054Z,990.78
2017-01-07T12:02:28.742Z,990.81
2017-01-07T12:03:37.426Z,990.78
2017-01-07T12:04:46.115Z,990.84
2017-01-07T12:05:54.799Z,990.85
2017-01-07T12:07:03.480Z,990.87
2017-01-07T12:08:12.169Z,990.89
2017-01-07T12:09:20.882Z,990.89
2017-01-07T12:10:29.574Z,990.9
2017-01-07T12:11:38.264Z,990.95
2017-01-07T12:12:46.951Z,990.88
2017-01-07T12:13:55.640Z,990.95
2017-01-07T12:15:04.329Z,990.96
2017-01-07T12:16:13.015Z,991
2017-01-07T12:17:21.706Z,991.02
2017-01-07T12:18:30.400Z,991.05
2017-01-07T12:19:39.089Z,991.08
2017-01-07T12:20:47.781Z,991.1
2017-01-07T12:21:56.468Z,991.06
2017-01-07T12:23:05.155Z,991.06
2017-01-07T12:24:13.840Z,991.02
2017-01-07T12:25:22.524Z,991.04
2017-01-07T12:26:31.217Z,991.05
2017-01-07T12:27:39.901Z,991.06
2017-01-07T12:28:48.582Z,991.11
2017-01-07T12:29:57.275Z,991.09
2017-01-07T12:31:05.965Z,991.11
2017-01-07T12:32:14.654Z,991.12
2017-01-07T12:33:23.350Z,991.1
2017-01-07T12:34:32.035Z,991.12
2017-01-07T12:35:40.722Z,991.1
2017-01-07T12:36:49.418Z,991.1
2017-01-07T12:37:58.113Z,991.15
2017-01-07T12:39:06.804Z,991.16
2017-01-07T12:40:15.495Z,991.11
2017-01-07T12:41:24.181Z,991.17
2017-01-07T12:42:32.867Z,991.13
2017-01-07T12:43:41.556Z,991.08
2017-01-07T12:44:50.247Z,991.06
2017-01-07T12:45:58.939Z,991.05
2017-01-07T12:47:07.640Z,990.99
2017-01-07T12:48:16.365Z,991.05
2017-01-07T12:49:25.059Z,991.05
2017-01-07T12:50:33.756Z,991.04
2017-01-07T12:51:42.446Z,991.09
2017-01-07T12:52:51.138Z,991.13
2017-01-07T12:53:59.829Z,991.1
2017-01-07T12:55:08.522Z,991.15
2017-01-07T12:56:17.210Z,991.2
2017-01-07T12:57:25.899Z,991.14
2017-01-07T12:58:34.589Z,991.18
2017-01-07T12:59:43.280Z,991.2
2017-01-07T13:00:51.968Z,991.19
2017-01-07T13:02:00.661Z,991.21
2017-01-07T13:03:09.356Z,991.2
2017-01-07T13:04:18.041Z,991.28
2017-01-07T13:05:26.729Z,991.35
2017-01-07T13:06:35.416Z,991.38
2017-01-07T13:07:44.102Z,991.46
2017-01-07T13:08:52.792Z,991.47
2017-01-07T13:10:01.485Z,991.49
2017-01-07T13:11:10.200Z,991.47
2017-01-07T13:12:18.895Z,991.37
2017-01-07T13:13:27.581Z,991.3
2017-01-07T13:14:36.271Z,991.29
2017-01-07T13:15:44.962Z,991.25
2017-01-07T13:16:53.655Z,991.22
2017-01-07T13:18:02.345Z,991.2
2017-01-07T13:19:11.044Z,991.19
2017-01-07T13:20:19.734Z,991.2
2017-01-07T13:21:28.440Z,991.2
2017-01-07T13:22:37.130Z,991.17
2017-01-07T13:23:45.820Z,991.2
2017-01-07T13:24:54.510Z,991.14
2017-01-07T13:26:03.238Z,991.14
2017-01-07T13:27:11.927Z,991.14
2017-01-07T13:28:20.618Z,991.09
2017-01-07T13:29:29.305Z,991.07
2017-01-07T13:30:37.999Z,991.07
2017-01-07T13:31:46.689Z,991.08
2017-01-07T13:32:55.391Z,991.11
2017-01-07T13:34:04.087Z,991.03
2017-01-07T13:35:12.774Z,991.09
2017-01-07T13:36:21.461Z,991.15
2017-01-07T13:37:30.149Z,991.1
2017-01-07T13:38:38.837Z,991.18
2017-01-07T13:39:47.526Z,991.27
2017-01-07T13:40:56.215Z,991.33
2017-01-07T13:42:04.902Z,991.33
2017-01-07T13:43:13.593Z,991.33
2017-01-07T13:44:22.281Z,991.32
2017-01-07T13:45:30.966Z,991.3
2017-01-07T13:46:39.650Z,991.29
2017-01-07T13:47:48.341Z,991.32
2017-01-07T13:48:57.031Z,991.28
2017-01-07T13:50:05.714Z,991.31
2017-01-07T13:51:14.401Z,991.29
2017-01-07T13:52:23.088Z,991.32
2017-01-07T13:53:31.809Z,991.31
2017-01-07T13:54:40.494Z,991.38
2017-01-07T13:55:49.203Z,991.45
2017-01-07T13:56:57.886Z,991.43
2017-01-07T13:58:06.575Z,991.45
2017-01-07T13:59:15.263Z,991.49
2017-01-07T14:00:23.943Z,991.51
2017-01-07T14:01:32.631Z,991.49
2017-01-07T14:02:41.322Z,991.47
2017-01-07T14:03:50.031Z,991.57
2017-01-07T14:04:59.119Z,991.58
2017-01-07T14:06:07.805Z,991.59
2017-01-07T14:07:16.496Z,991.6
2017-01-07T14:08:25.182Z,991.64
2017-01-07T14:09:33.874Z,991.64
2017-01-07T14:10:42.563Z,991.69
2017-01-07T14:11:51.255Z,991.69
2017-01-07T14:12:59.937Z,991.66
2017-01-07T14:14:08.649Z,991.65
2017-01-07T14:15:17.335Z,991.71
2017-01-07T14:16:26.017Z,991.67
2017-01-07T14:17:35.141Z,991.63
2017-01-07T14:18:43.830Z,991.59
2017-01-07T14:19:52.512Z,991.58
2017-01-07T14:21:01.196Z,991.56